Time;durP1;ratioP1;P1;durP2;ratioP2;P2;SDS_P1;SDS_P2;PMS_P1;PMS_P2;Temp;Humidity;BMP_temperature;BMP_pressure;BME280_temperature;BME280_humidity;BME280_pressure;Samples;Min_cycle;Max_cycle;Signal;HPM_P1;HPM_P2
2022/07/02 00:00:27;;;;;;;7.50;6.80;;;15.70;99.90;;;;;;5233719;28;20178;-50
2022/07/02 00:02:59;;;;;;;10.30;8.93;;;15.60;99.90;;;;;;5221333;28;20273;-51
2022/07/02 00:05:32;;;;;;;11.10;8.70;;;15.70;99.90;;;;;;5242574;28;20357;-50
2022/07/02 00:08:05;;;;;;;9.67;8.20;;;15.60;99.90;;;;;;5222116;28;20848;-51
2022/07/02 00:10:36;;;;;;;12.23;10.93;;;15.60;99.90;;;;;;5210690;28;20429;-50
2022/07/02 00:13:07;;;;;;;11.90;7.63;;;15.60;99.90;;;;;;5232132;28;20467;-50
2022/07/02 00:15:38;;;;;;;9.30;8.40;;;15.60;99.90;;;;;;5240533;28;20592;-50
2022/07/02 00:18:09;;;;;;;8.80;8.00;;;15.60;99.90;;;;;;5243442;28;20424;-50
2022/07/02 00:20:42;;;;;;;14.73;9.00;;;15.50;99.90;;;;;;5213915;28;20183;-51
2022/07/02 00:23:13;;;;;;;11.60;8.30;;;15.50;99.90;;;;;;5251845;28;20511;-49
2022/07/02 00:25:53;;;;;;;10.47;8.30;;;15.50;99.90;;;;;;5223067;28;20464;-51
2022/07/02 00:28:26;;;;;;;7.83;7.17;;;15.50;99.90;;;;;;5226982;28;20170;-50
2022/07/02 00:30:56;;;;;;;8.00;7.10;;;15.50;99.90;;;;;;5214297;28;20459;-50
2022/07/02 00:33:33;;;;;;;13.00;8.73;;;15.40;99.90;;;;;;5242834;28;20432;-50
2022/07/02 00:36:04;;;;;;;8.47;7.60;;;15.40;99.90;;;;;;5222191;28;20236;-50
2022/07/02 00:38:34;;;;;;;7.07;6.50;;;15.40;99.90;;;;;;5241168;28;20440;-50
2022/07/02 00:41:05;;;;;;;11.20;9.60;;;15.40;99.90;;;;;;5247461;28;20522;-51
2022/07/02 00:43:36;;;;;;;9.73;8.53;;;15.40;99.90;;;;;;5226809;28;20183;-50
2022/07/02 00:46:07;;;;;;;8.40;7.60;;;15.30;99.90;;;;;;5244093;28;20182;-49
2022/07/02 00:48:38;;;;;;;10.23;7.20;;;15.30;99.90;;;;;;5213782;28;20190;-50
2022/07/02 00:51:08;;;;;;;9.00;7.83;;;15.30;99.90;;;;;;5232738;28;20479;-50
2022/07/02 00:53:39;;;;;;;9.00;8.10;;;15.30;99.90;;;;;;5239076;28;20464;-50
2022/07/02 00:56:10;;;;;;;11.90;9.23;;;15.40;99.90;;;;;;5246204;28;20218;-51
2022/07/02 00:58:41;;;;;;;10.90;9.10;;;15.30;99.90;;;;;;5232872;28;20657;-50
2022/07/02 01:01:12;;;;;;;7.57;6.97;;;15.30;99.90;;;;;;5215555;28;20178;-51
2022/07/02 01:03:45;;;;;;;8.80;7.90;;;15.30;99.90;;;;;;5246468;28;20441;-50
2022/07/02 01:06:17;;;;;;;8.40;7.27;;;15.30;99.90;;;;;;5247537;28;20523;-51
2022/07/02 01:11:41;;;;;;;7.87;7.10;;;15.30;99.90;;;;;;5246614;28;20550;-50
2022/07/02 01:14:15;;;;;;;8.50;7.67;;;15.30;99.90;;;;;;5240201;28;20464;-51
2022/07/02 01:16:46;;;;;;;8.70;7.10;;;15.30;99.90;;;;;;5249661;28;20928;-50
2022/07/02 01:19:19;;;;;;;8.70;7.57;;;15.30;99.90;;;;;;5248625;28;20450;-50
2022/07/02 01:22:11;;;;;;;11.17;7.23;;;15.30;99.90;;;;;;5248843;28;20440;-50
2022/07/02 01:24:43;;;;;;;14.20;8.47;;;15.20;99.90;;;;;;5247922;28;20543;-49
2022/07/02 01:27:14;;;;;;;12.23;9.63;;;15.20;99.90;;;;;;5201847;28;20469;-50
2022/07/02 01:29:45;;;;;;;13.70;8.80;;;15.20;99.90;;;;;;5233518;28;20435;-51
2022/07/02 01:32:16;;;;;;;12.60;8.70;;;15.20;99.90;;;;;;5252864;28;20483;-50
2022/07/02 01:35:00;;;;;;;9.30;7.90;;;15.20;99.90;;;;;;5239013;28;20234;-49
2022/07/02 01:37:31;;;;;;;8.67;7.77;;;15.20;99.90;;;;;;5226965;28;20433;-49
2022/07/02 01:40:03;;;;;;;11.83;8.57;;;15.20;99.90;;;;;;5206760;28;20451;-50
2022/07/02 01:42:33;;;;;;;8.93;8.03;;;15.20;99.90;;;;;;5246319;28;20273;-50
2022/07/02 01:45:05;;;;;;;17.53;8.20;;;15.20;99.90;;;;;;5228696;28;20464;-50
2022/07/02 01:47:35;;;;;;;8.87;8.10;;;15.20;99.90;;;;;;5238948;28;20225;-50
2022/07/02 01:50:06;;;;;;;7.60;6.90;;;15.20;99.90;;;;;;5217262;28;20449;-49
2022/07/02 01:52:37;;;;;;;9.13;8.27;;;15.10;99.90;;;;;;5243992;28;20203;-51
2022/07/02 01:55:08;;;;;;;8.93;8.10;;;15.20;99.90;;;;;;5255336;28;20500;-50
2022/07/02 01:57:38;;;;;;;11.83;8.27;;;15.10;99.90;;;;;;5227454;28;20708;-51
2022/07/02 02:00:12;;;;;;;9.80;8.80;;;15.20;99.90;;;;;;5227983;28;20182;-50
2022/07/02 02:02:42;;;;;;;9.77;8.70;;;15.20;99.90;;;;;;5231454;28;20190;-51
2022/07/02 02:05:13;;;;;;;9.53;8.53;;;15.20;99.90;;;;;;5233132;28;20856;-50
2022/07/02 02:07:44;;;;;;;11.33;8.53;;;15.20;99.90;;;;;;5237055;28;20303;-50
2022/07/02 02:10:14;;;;;;;10.77;9.67;;;15.30;99.90;;;;;;5241365;28;20203;-50
2022/07/02 02:12:45;;;;;;;15.30;8.80;;;15.30;99.90;;;;;;5234458;28;20207;-50
2022/07/02 02:15:15;;;;;;;9.53;8.70;;;15.30;99.90;;;;;;5245173;28;20519;-50
2022/07/02 02:17:46;;;;;;;14.77;11.47;;;15.20;99.90;;;;;;5207743;28;20202;-50
2022/07/02 02:20:17;;;;;;;11.70;8.67;;;15.30;99.90;;;;;;5228342;28;20512;-51
2022/07/02 02:22:47;;;;;;;9.27;8.20;;;15.30;99.90;;;;;;5221394;28;20543;-50
2022/07/02 02:25:18;;;;;;;10.00;8.53;;;15.30;99.90;;;;;;5243253;28;20260;-49
2022/07/02 02:27:50;;;;;;;9.30;8.50;;;15.30;99.90;;;;;;5244054;28;20178;-51
2022/07/02 02:30:20;;;;;;;9.97;8.93;;;15.30;99.90;;;;;;5243748;28;20649;-49
2022/07/02 02:32:51;;;;;;;10.63;9.63;;;15.30;99.90;;;;;;5238264;28;20475;-49
2022/07/02 02:35:22;;;;;;;9.47;8.50;;;15.30;99.90;;;;;;5245377;28;20602;-51
2022/07/02 02:37:53;;;;;;;12.63;8.83;;;15.20;99.90;;;;;;5241048;28;20599;-50
2022/07/02 02:40:23;;;;;;;10.00;9.00;;;15.30;99.90;;;;;;5215472;28;20527;-50
2022/07/02 02:42:54;;;;;;;11.23;9.20;;;15.20;99.90;;;;;;5246129;28;20194;-50
2022/07/02 02:45:24;;;;;;;12.63;9.07;;;15.20;99.90;;;;;;5245545;28;20630;-50
2022/07/02 02:47:55;;;;;;;13.50;9.10;;;15.20;99.90;;;;;;5239048;28;20572;-50
2022/07/02 02:50:25;;;;;;;10.40;9.40;;;15.20;99.90;;;;;;5233881;28;20595;-51
2022/07/02 02:52:56;;;;;;;10.53;9.27;;;15.10;99.90;;;;;;5247793;28;20626;-49
2022/07/02 02:55:27;;;;;;;11.43;10.23;;;15.10;99.90;;;;;;5245401;28;20194;-51
2022/07/02 02:57:58;;;;;;;10.23;9.20;;;15.10;99.90;;;;;;5261627;28;20173;-50
2022/07/02 03:00:28;;;;;;;10.80;9.20;;;15.10;99.90;;;;;;5246420;28;21128;-50
2022/07/02 03:02:59;;;;;;;15.33;9.43;;;15.10;99.90;;;;;;5254552;28;20208;-51
2022/07/02 03:05:30;;;;;;;12.40;8.40;;;15.10;99.90;;;;;;5255708;28;20217;-49
2022/07/02 03:08:00;;;;;;;10.97;9.83;;;15.10;99.90;;;;;;5247712;28;20189;-50
2022/07/02 03:10:31;;;;;;;10.60;9.50;;;15.10;99.90;;;;;;5243267;28;20190;-50
2022/07/02 03:13:02;;;;;;;9.83;8.73;;;15.10;99.90;;;;;;5229909;28;20206;-50
2022/07/02 03:15:32;;;;;;;9.60;8.30;;;15.20;99.90;;;;;;5242994;28;20653;-50
2022/07/02 03:18:03;;;;;;;8.83;8.03;;;15.20;99.90;;;;;;5246581;28;20199;-50
2022/07/02 03:20:34;;;;;;;10.57;9.47;;;15.20;99.90;;;;;;5231090;28;20178;-50
2022/07/02 03:23:04;;;;;;;13.30;9.60;;;15.10;99.90;;;;;;5243175;28;20181;-50
2022/07/02 03:25:35;;;;;;;9.53;8.70;;;15.10;99.90;;;;;;5262009;23;20241;-45
2022/07/02 03:28:06;;;;;;;10.33;9.23;;;15.20;99.90;;;;;;5246780;28;20537;-44
2022/07/02 03:30:36;;;;;;;13.33;10.70;;;15.20;99.90;;;;;;5242404;28;20304;-46
2022/07/02 03:33:07;;;;;;;11.07;9.23;;;15.20;99.90;;;;;;5240065;28;20210;-46
2022/07/02 03:35:37;;;;;;;12.20;10.07;;;15.30;99.90;;;;;;5235323;28;20199;-46
2022/07/02 03:38:08;;;;;;;10.53;8.70;;;15.30;99.90;;;;;;5240389;28;20182;-46
2022/07/02 03:40:38;;;;;;;15.57;9.60;;;15.40;99.90;;;;;;5226398;28;20182;-47
2022/07/02 03:43:09;;;;;;;12.20;10.30;;;15.50;99.90;;;;;;5229117;28;20197;-46
2022/07/02 03:45:40;;;;;;;9.90;8.90;;;15.50;99.90;;;;;;5242634;28;20325;-45
2022/07/02 03:48:10;;;;;;;9.67;8.87;;;15.50;99.90;;;;;;5227994;28;20197;-45
2022/07/02 03:50:42;;;;;;;14.20;9.97;;;15.60;99.90;;;;;;5225027;28;20259;-51
2022/07/02 03:53:13;;;;;;;14.40;9.90;;;15.60;99.90;;;;;;5230609;28;20237;-46
2022/07/02 03:55:43;;;;;;;11.53;8.93;;;15.70;99.90;;;;;;5241591;28;20492;-46
2022/07/02 03:58:14;;;;;;;10.60;9.60;;;15.70;99.90;;;;;;5221768;28;20205;-48
2022/07/02 04:00:45;;;;;;;14.37;10.40;;;15.80;99.90;;;;;;5232923;28;20174;-46
2022/07/02 04:03:15;;;;;;;11.87;9.13;;;15.80;99.90;;;;;;5243820;28;20271;-46
2022/07/02 04:05:46;;;;;;;9.40;8.50;;;15.90;99.90;;;;;;5243237;28;20751;-45
2022/07/02 04:08:16;;;;;;;10.30;8.87;;;15.90;99.90;;;;;;5237443;28;20178;-46
2022/07/02 04:10:47;;;;;;;12.47;8.17;;;16.00;99.90;;;;;;5198624;28;20182;-47
2022/07/02 04:13:18;;;;;;;11.77;9.77;;;16.20;99.90;;;;;;5245522;28;20179;-47
2022/07/02 04:15:48;;;;;;;11.10;9.40;;;16.30;99.90;;;;;;5222341;28;20217;-46
2022/07/02 04:18:19;;;;;;;10.00;8.63;;;16.30;99.90;;;;;;5240220;28;20182;-47
2022/07/02 04:20:50;;;;;;;10.87;8.43;;;16.50;99.90;;;;;;5243636;28;20268;-45
2022/07/02 04:23:20;;;;;;;12.47;8.30;;;16.60;99.90;;;;;;5240036;28;20206;-46
2022/07/02 04:25:51;;;;;;;10.30;8.43;;;16.70;99.90;;;;;;5224005;28;20210;-46
2022/07/02 04:28:23;;;;;;;9.33;7.47;;;16.80;99.90;;;;;;5240587;28;20174;-46
2022/07/02 04:30:54;;;;;;;8.27;7.30;;;16.90;99.90;;;;;;5227747;28;20546;-46
2022/07/02 04:33:24;;;;;;;7.47;6.73;;;17.20;99.90;;;;;;5238523;28;20424;-46
2022/07/02 04:35:55;;;;;;;7.53;6.80;;;17.50;99.90;;;;;;5242693;28;20696;-45
2022/07/02 04:38:25;;;;;;;8.20;6.70;;;17.80;99.90;;;;;;5222808;28;20182;-45
2022/07/02 04:40:56;;;;;;;6.30;5.80;;;18.10;99.90;;;;;;5247510;28;20186;-45
2022/07/02 04:43:27;;;;;;;7.60;6.90;;;18.30;99.90;;;;;;5219136;28;20643;-46
2022/07/02 04:45:57;;;;;;;10.80;7.07;;;18.70;99.90;;;;;;5250688;28;20206;-45
2022/07/02 04:48:28;;;;;;;7.63;6.93;;;19.20;99.90;;;;;;5239939;28;20602;-45
2022/07/02 04:50:59;;;;;;;8.23;6.00;;;20.00;99.90;;;;;;5241198;28;20198;-46
2022/07/02 04:53:30;;;;;;;7.13;6.30;;;20.80;99.90;;;;;;5242652;28;20999;-47
2022/07/02 04:56:00;;;;;;;7.03;6.33;;;21.50;99.90;;;;;;5220426;28;20202;-45
2022/07/02 04:58:31;;;;;;;7.30;6.60;;;22.10;99.90;;;;;;5236849;28;20261;-45
2022/07/02 05:01:02;;;;;;;5.43;5.03;;;22.20;99.90;;;;;;5239340;28;20603;-46
2022/07/02 05:03:32;;;;;;;6.00;5.13;;;22.30;99.90;;;;;;5215448;28;20187;-45
2022/07/02 05:06:03;;;;;;;6.87;5.60;;;22.50;99.90;;;;;;5217798;28;20247;-46
2022/07/02 05:08:34;;;;;;;7.07;6.47;;;22.20;98.20;;;;;;5235289;28;20234;-46
2022/07/02 05:11:04;;;;;;;6.17;5.77;;;22.40;98.40;;;;;;5223758;28;20174;-45
2022/07/02 05:13:35;;;;;;;7.30;5.63;;;22.60;96.50;;;;;;5223004;28;20190;-47
2022/07/02 05:16:05;;;;;;;4.67;4.27;;;22.90;95.30;;;;;;5236255;28;20265;-45
2022/07/02 05:18:36;;;;;;;5.70;4.80;;;23.70;93.90;;;;;;5235010;28;20175;-46
2022/07/02 05:21:07;;;;;;;7.30;6.60;;;23.70;91.30;;;;;;5237655;28;20195;-45
2022/07/02 05:23:38;;;;;;;4.80;4.40;;;24.30;88.50;;;;;;5222715;28;20256;-47
2022/07/02 05:26:09;;;;;;;4.57;4.13;;;25.50;82.40;;;;;;5219190;28;20190;-45
2022/07/02 05:28:39;;;;;;;4.20;3.90;;;26.20;74.60;;;;;;5233794;28;20601;-44
2022/07/02 05:31:10;;;;;;;4.60;4.13;;;27.40;66.60;;;;;;5221792;28;20582;-44
2022/07/02 05:33:41;;;;;;;5.67;4.60;;;28.70;60.10;;;;;;5242139;28;20210;-47
2022/07/02 05:36:11;;;;;;;4.50;4.10;;;30.10;52.90;;;;;;5243833;28;20178;-46
2022/07/02 05:38:42;;;;;;;3.77;3.63;;;30.80;49.10;;;;;;5222560;28;20189;-45
2022/07/02 05:41:12;;;;;;;4.13;3.80;;;31.80;45.60;;;;;;5227125;28;20196;-45
2022/07/02 05:43:43;;;;;;;4.53;4.20;;;31.60;44.30;;;;;;5245611;28;20235;-48
2022/07/02 05:46:14;;;;;;;4.70;4.40;;;32.50;42.90;;;;;;5204549;28;20681;-46
2022/07/02 05:48:44;;;;;;;4.40;3.87;;;33.30;41.50;;;;;;5252550;28;20177;-44
2022/07/02 05:51:16;;;;;;;5.57;4.20;;;33.80;40.10;;;;;;5231008;28;20249;-47
2022/07/02 05:53:46;;;;;;;3.85;3.55;;;34.10;38.40;;;;;;5226046;28;20181;-46
2022/07/02 05:56:17;;;;;;;11.77;3.30;;;34.20;37.50;;;;;;5246698;28;20181;-45
2022/07/02 05:58:47;;;;;;;5.43;3.10;;;34.40;37.40;;;;;;5241458;28;20214;-48
2022/07/02 06:01:18;;;;;;;3.45;3.15;;;34.20;37.00;;;;;;5236814;28;20598;-45
2022/07/02 06:03:49;;;;;;;3.45;3.20;;;34.20;37.00;;;;;;5241468;28;20260;-45
2022/07/02 06:09:08;;;;;;;2.85;2.75;;;35.50;34.80;;;;;;5240911;28;20229;-46
2022/07/02 06:11:39;;;;;;;3.08;2.78;;;36.10;34.40;;;;;;5242380;28;21359;-47
2022/07/02 06:14:09;;;;;;;3.75;3.42;;;36.70;33.20;;;;;;5229930;28;20280;-47
2022/07/02 06:16:40;;;;;;;3.30;3.10;;;37.00;32.50;;;;;;5244646;28;20239;-46
2022/07/02 06:19:11;;;;;;;2.65;2.55;;;36.60;31.90;;;;;;5225818;28;20767;-45
2022/07/02 06:21:42;;;;;;;3.67;3.42;;;37.00;32.10;;;;;;5240016;28;20194;-44
2022/07/02 06:24:12;;;;;;;3.63;3.22;;;36.60;31.90;;;;;;5233959;28;21223;-46
2022/07/02 06:26:43;;;;;;;3.03;2.92;;;36.10;31.90;;;;;;5235508;28;20657;-46
2022/07/02 06:29:14;;;;;;;3.85;3.60;;;36.60;31.80;;;;;;5233169;28;20585;-46
2022/07/02 06:31:44;;;;;;;3.63;3.33;;;36.50;32.00;;;;;;5216381;28;20259;-46
2022/07/02 06:34:15;;;;;;;2.97;2.88;;;37.00;31.30;;;;;;5233020;28;20202;-45
2022/07/02 06:36:46;;;;;;;3.42;2.67;;;36.90;31.50;;;;;;5218253;28;20211;-46
2022/07/02 06:39:17;;;;;;;5.07;3.58;;;37.40;31.20;;;;;;5231366;28;20183;-46
2022/07/02 06:44:40;;;;;;;6.43;3.58;;;37.60;30.00;;;;;;5237867;28;20206;-45
2022/07/02 06:47:10;;;;;;;2.85;2.65;;;37.80;30.00;;;;;;5239757;28;20190;-46
2022/07/02 06:49:42;;;;;;;3.25;3.15;;;38.00;29.90;;;;;;5231554;28;20229;-46
2022/07/02 06:52:12;;;;;;;2.92;2.83;;;38.50;29.30;;;;;;5219960;28;20302;-47
2022/07/02 06:54:44;;;;;;;7.07;2.60;;;38.10;29.40;;;;;;5233449;28;20273;-46
2022/07/02 06:57:14;;;;;;;4.43;3.22;;;37.90;29.00;;;;;;5217882;28;20179;-45
2022/07/02 06:59:45;;;;;;;4.03;2.95;;;38.20;28.00;;;;;;5206512;28;20186;-46
2022/07/02 07:02:16;;;;;;;6.30;2.40;;;37.90;28.50;;;;;;5236904;28;20190;-46
2022/07/02 07:04:47;;;;;;;4.32;2.85;;;38.10;28.50;;;;;;5218829;28;20310;-49
2022/07/02 07:07:18;;;;;;;3.17;2.30;;;37.30;28.60;;;;;;5217408;28;20178;-46
2022/07/02 07:09:49;;;;;;;1.95;1.95;;;37.40;28.70;;;;;;5212730;28;20174;-48
2022/07/02 07:12:19;;;;;;;2.83;2.60;;;37.90;28.40;;;;;;5230526;28;20202;-45
2022/07/02 07:14:50;;;;;;;2.33;2.17;;;38.00;28.70;;;;;;5231865;28;20294;-45
2022/07/02 07:17:21;;;;;;;2.42;2.20;;;38.50;28.10;;;;;;5216928;28;20193;-47
2022/07/02 07:19:51;;;;;;;6.07;2.92;;;39.20;27.60;;;;;;5235013;28;20186;-46
2022/07/02 07:22:22;;;;;;;2.20;2.10;;;39.40;26.70;;;;;;5229363;28;20193;-45
2022/07/02 07:24:53;;;;;;;4.82;2.97;;;38.70;26.70;;;;;;5217565;28;20217;-45
2022/07/02 07:27:23;;;;;;;2.63;2.40;;;39.30;26.80;;;;;;5230614;28;20343;-46
2022/07/02 07:29:54;;;;;;;2.42;2.20;;;39.30;26.30;;;;;;5199501;28;20268;-46
2022/07/02 07:32:24;;;;;;;2.20;2.10;;;39.30;26.80;;;;;;5235379;28;20213;-44
2022/07/02 07:34:55;;;;;;;2.03;1.92;;;40.00;26.30;;;;;;5243813;28;20209;-46
2022/07/02 07:37:25;;;;;;;1.45;1.45;;;39.30;25.60;;;;;;5238603;28;20194;-46
2022/07/02 07:39:56;;;;;;;1.90;1.80;;;38.50;26.60;;;;;;5216073;28;20178;-45
2022/07/02 07:42:27;;;;;;;2.25;2.13;;;38.30;26.30;;;;;;5216112;28;20200;-45
2022/07/02 07:44:58;;;;;;;1.50;1.50;;;38.70;26.00;;;;;;5232037;28;20217;-46
2022/07/02 07:47:28;;;;;;;1.40;1.40;;;38.70;25.60;;;;;;5243181;28;20265;-44
2022/07/02 07:49:59;;;;;;;1.40;1.40;;;38.80;25.00;;;;;;5245550;28;20177;-46
2022/07/02 07:52:29;;;;;;;5.63;2.33;;;38.70;25.10;;;;;;5240320;28;20237;-47
2022/07/02 07:55:00;;;;;;;2.10;1.98;;;38.20;25.10;;;;;;5224596;28;20206;-44
2022/07/02 07:57:30;;;;;;;1.98;1.83;;;38.60;25.40;;;;;;5238739;28;20189;-46
2022/07/02 08:00:03;;;;;;;2.05;1.95;;;38.80;25.00;;;;;;5237596;28;20312;-45
2022/07/02 08:02:33;;;;;;;1.33;1.27;;;39.20;24.40;;;;;;5224881;28;20240;-45
2022/07/02 08:05:04;;;;;;;1.60;1.60;;;39.30;24.70;;;;;;5241137;28;20240;-47
2022/07/02 08:07:36;;;;;;;2.28;1.92;;;39.00;23.90;;;;;;5221728;28;20216;-47
2022/07/02 08:10:10;;;;;;;2.47;1.77;;;39.20;24.40;;;;;;5239273;28;20323;-45
2022/07/02 08:12:41;;;;;;;2.08;1.33;;;39.10;24.30;;;;;;5231202;28;20681;-45
2022/07/02 08:15:12;;;;;;;2.92;1.70;;;38.80;24.60;;;;;;5241809;28;20206;-45
2022/07/02 08:17:42;;;;;;;1.70;1.70;;;39.20;24.30;;;;;;5205537;28;20183;-46
2022/07/02 08:20:13;;;;;;;1.33;1.30;;;39.20;24.80;;;;;;5246130;28;20176;-45
2022/07/02 08:22:46;;;;;;;3.50;1.30;;;39.00;24.40;;;;;;5202977;28;20204;-47
2022/07/02 08:25:18;;;;;;;1.63;1.52;;;38.40;23.10;;;;;;5232622;28;20222;-45
2022/07/02 08:27:49;;;;;;;1.67;1.13;;;37.20;24.30;;;;;;5240453;28;20251;-46
2022/07/02 08:30:19;;;;;;;1.60;1.50;;;34.40;26.40;;;;;;5235262;28;20177;-50
2022/07/02 08:32:51;;;;;;;3.80;1.53;;;31.50;29.20;;;;;;5241908;28;20689;-47
2022/07/02 08:35:21;;;;;;;0.77;0.77;;;30.00;32.00;;;;;;5245816;28;20185;-48
2022/07/02 08:37:53;;;;;;;2.90;1.70;;;31.10;31.50;;;;;;5207817;28;20192;-46
2022/07/02 08:40:28;;;;;;;1.70;1.10;;;32.30;28.90;;;;;;5247018;28;20664;-46
2022/07/02 08:43:00;;;;;;;1.23;0.83;;;33.10;28.60;;;;;;5239016;28;20669;-44
2022/07/02 08:45:32;;;;;;;0.97;0.97;;;31.90;28.50;;;;;;5227945;28;20202;-46
2022/07/02 08:48:05;;;;;;;0.90;0.90;;;29.90;28.50;;;;;;5222523;28;20512;-46
2022/07/02 08:50:37;;;;;;;1.93;1.30;;;28.40;31.50;;;;;;5238676;28;20436;-45
2022/07/02 08:53:08;;;;;;;5.60;1.90;;;27.20;34.30;;;;;;5222014;28;20496;-46
2022/07/02 08:55:41;;;;;;;5.70;1.00;;;26.90;35.40;;;;;;5215054;28;20448;-44
2022/07/02 08:58:13;;;;;;;3.10;1.03;;;26.80;36.00;;;;;;5238514;28;20444;-44
2022/07/02 09:00:43;;;;;;;3.13;1.30;;;26.60;36.70;;;;;;5231666;28;20444;-45
2022/07/02 09:03:19;;;;;;;2.17;1.40;;;26.20;37.00;;;;;;5232102;28;20444;-46
2022/07/02 09:05:51;;;;;;;1.50;1.20;;;26.00;37.90;;;;;;5239199;28;20456;-47
2022/07/02 09:08:22;;;;;;;1.40;1.30;;;26.10;38.30;;;;;;5238748;28;20524;-47
2022/07/02 09:10:54;;;;;;;1.70;1.60;;;25.60;38.70;;;;;;5223059;28;20501;-48
2022/07/02 09:13:24;;;;;;;2.87;1.20;;;25.40;39.80;;;;;;5214232;28;20476;-47
2022/07/02 09:15:55;;;;;;;2.10;1.67;;;25.50;40.10;;;;;;5226066;28;20465;-46
2022/07/02 09:18:26;;;;;;;2.23;1.60;;;25.50;38.70;;;;;;5227415;28;20720;-47
2022/07/02 09:20:57;;;;;;;7.57;2.00;;;25.30;38.30;;;;;;5237946;28;20524;-47
2022/07/02 09:23:27;;;;;;;9.60;1.80;;;25.00;39.30;;;;;;5241995;28;20186;-45
2022/07/02 09:25:58;;;;;;;2.80;2.40;;;24.90;38.90;;;;;;5202442;23;20514;-48
2022/07/02 09:28:29;;;;;;;3.93;1.50;;;24.70;38.90;;;;;;5190278;28;20184;-48
2022/07/02 09:31:05;;;;;;;2.67;1.27;;;24.90;39.90;;;;;;5233282;28;20198;-49
2022/07/02 09:33:40;;;;;;;7.83;1.50;;;25.10;39.30;;;;;;5225461;28;20301;-49
2022/07/02 09:36:12;;;;;;;1.10;1.10;;;25.20;39.70;;;;;;5210909;28;20461;-49
2022/07/02 09:38:48;;;;;;;7.30;1.60;;;25.50;38.80;;;;;;5225868;28;20486;-50
2022/07/02 09:41:26;;;;;;;1.37;1.27;;;25.50;39.00;;;;;;5229300;28;20453;-49
2022/07/02 09:43:59;;;;;;;1.40;1.30;;;25.30;38.20;;;;;;5219009;28;20429;-48
2022/07/02 09:46:30;;;;;;;1.13;1.13;;;25.30;38.10;;;;;;5219902;28;20474;-48
2022/07/02 09:49:07;;;;;;;1.47;1.37;;;25.40;38.20;;;;;;5205499;28;20937;-48
2022/07/02 09:51:49;;;;;;;2.10;1.60;;;25.60;37.70;;;;;;5218698;28;20492;-49
2022/07/02 09:54:22;;;;;;;2.13;1.50;;;25.60;36.80;;;;;;5208599;28;20533;-49
2022/07/02 09:56:57;;;;;;;1.20;1.20;;;25.50;36.90;;;;;;5207344;28;20456;-50
2022/07/02 09:59:36;;;;;;;0.80;0.80;;;25.30;36.30;;;;;;5229748;28;20436;-48
2022/07/02 10:02:22;;;;;;;5.03;1.87;;;25.20;36.20;;;;;;5223304;28;20931;-49
2022/07/02 10:04:55;;;;;;;1.30;1.30;;;25.10;37.30;;;;;;5222786;28;20998;-47
2022/07/02 10:07:26;;;;;;;1.80;1.57;;;24.80;38.10;;;;;;5221866;28;20489;-48
2022/07/02 10:10:00;;;;;;;2.40;1.23;;;24.40;38.60;;;;;;5212191;28;20437;-48
2022/07/02 10:12:31;;;;;;;3.33;1.60;;;24.50;40.20;;;;;;5221289;28;20320;-48
2022/07/02 10:15:04;;;;;;;5.73;0.90;;;24.70;39.30;;;;;;5206010;28;20494;-49
2022/07/02 10:17:36;;;;;;;2.53;2.00;;;24.90;39.10;;;;;;5227377;28;20183;-50
2022/07/02 10:20:09;;;;;;;1.17;0.90;;;25.20;38.00;;;;;;5231308;28;20429;-50
2022/07/02 10:22:39;;;;;;;1.77;1.67;;;25.40;37.70;;;;;;5205998;28;20460;-49
2022/07/02 10:25:10;;;;;;;6.17;1.30;;;25.60;37.00;;;;;;5222263;28;20473;-49
2022/07/02 10:27:41;;;;;;;1.50;1.40;;;25.60;37.40;;;;;;5219043;28;20191;-50
2022/07/02 10:30:16;;;;;;;0.93;0.93;;;25.40;37.20;;;;;;5208465;28;20654;-48
2022/07/02 10:33:01;;;;;;;2.30;1.30;;;25.40;36.50;;;;;;5208964;28;20580;-48
2022/07/02 10:35:34;;;;;;;2.23;1.10;;;24.90;37.70;;;;;;5225816;28;20452;-48
2022/07/02 10:38:06;;;;;;;0.97;0.97;;;24.90;38.10;;;;;;5223168;28;20448;-48
2022/07/02 10:40:49;;;;;;;4.97;1.80;;;25.10;38.20;;;;;;5213656;28;20432;-49
2022/07/02 10:43:20;;;;;;;6.30;2.10;;;25.10;37.00;;;;;;5219084;28;20798;-50
2022/07/02 10:46:03;;;;;;;4.33;1.40;;;25.00;37.40;;;;;;5217451;28;20561;-50
2022/07/02 10:48:55;;;;;;;2.80;2.53;;;25.00;38.50;;;;;;5221048;28;20509;-50
2022/07/02 10:51:34;;;;;;;1.40;1.40;;;25.30;37.70;;;;;;5229458;28;20551;-49
2022/07/02 10:54:08;;;;;;;0.90;0.90;;;25.80;36.60;;;;;;5227819;28;20421;-48
2022/07/02 10:56:49;;;;;;;2.27;1.13;;;26.00;36.50;;;;;;5209513;28;20433;-47
2022/07/02 10:59:20;;;;;;;1.33;1.23;;;26.20;34.70;;;;;;5229599;28;20445;-49
2022/07/02 11:02:01;;;;;;;4.23;3.50;;;26.10;35.00;;;;;;5221213;28;20425;-49
2022/07/02 11:04:33;;;;;;;1.10;1.10;;;25.80;35.40;;;;;;5192370;28;20503;-49
2022/07/02 11:07:09;;;;;;;2.37;0.93;;;25.20;35.20;;;;;;5203203;28;20520;-49
2022/07/02 11:09:49;;;;;;;1.10;1.10;;;25.00;36.10;;;;;;5224623;28;20444;-49
2022/07/02 11:12:39;;;;;;;1.00;0.90;;;24.90;34.40;;;;;;5219522;28;20462;-48
2022/07/02 11:15:27;;;;;;;2.10;0.90;;;24.90;35.00;;;;;;5227778;28;20540;-48
2022/07/02 11:18:02;;;;;;;1.83;1.43;;;25.20;35.60;;;;;;5219451;28;20439;-47
2022/07/02 11:20:35;;;;;;;1.13;0.97;;;25.40;35.40;;;;;;5201636;28;20472;-49
2022/07/02 11:23:05;;;;;;;3.27;0.90;;;25.70;35.60;;;;;;5209682;28;20483;-48
2022/07/02 11:25:36;;;;;;;5.83;3.20;;;26.00;36.30;;;;;;5211228;28;21023;-48
2022/07/02 11:28:06;;;;;;;4.00;2.50;;;25.90;34.30;;;;;;5223835;28;20183;-49
2022/07/02 11:30:37;;;;;;;8.10;2.13;;;25.90;35.40;;;;;;5201002;28;20183;-49
2022/07/02 11:33:14;;;;;;;1.13;1.13;;;26.10;35.70;;;;;;5222054;28;20260;-51
2022/07/02 11:35:51;;;;;;;1.33;1.20;;;26.20;35.30;;;;;;5219164;28;20682;-49
2022/07/02 11:38:21;;;;;;;2.83;1.20;;;26.20;34.60;;;;;;5188189;28;20540;-48
2022/07/02 11:40:52;;;;;;;3.20;1.50;;;26.20;33.70;;;;;;5201763;28;20492;-49
2022/07/02 11:43:23;;;;;;;2.33;1.13;;;26.20;34.50;;;;;;5192622;28;20241;-49
2022/07/02 11:45:53;;;;;;;2.10;1.30;;;26.40;33.40;;;;;;5218156;28;20603;-49
2022/07/02 11:48:24;;;;;;;1.30;1.17;;;26.30;33.90;;;;;;5216057;28;20341;-48
2022/07/02 11:51:00;;;;;;;1.20;1.10;;;26.30;34.10;;;;;;5214214;28;20184;-48
2022/07/02 11:53:31;;;;;;;2.43;0.90;;;26.40;34.10;;;;;;5203153;28;20194;-51
2022/07/02 11:56:10;;;;;;;15.50;1.87;;;26.40;33.30;;;;;;5211728;28;20461;-52
2022/07/02 11:58:43;;;;;;;2.73;1.83;;;26.00;33.60;;;;;;5208405;28;20188;-50
2022/07/02 12:01:23;;;;;;;3.60;1.70;;;25.70;34.10;;;;;;5208019;28;20468;-50
2022/07/02 12:04:02;;;;;;;6.63;4.30;;;25.50;34.10;;;;;;5217499;28;20441;-49
2022/07/02 12:06:39;;;;;;;3.50;1.77;;;25.30;34.90;;;;;;5197363;28;20437;-48
2022/07/02 12:09:11;;;;;;;1.07;1.07;;;25.20;35.60;;;;;;5179225;28;20453;-50
2022/07/02 12:11:44;;;;;;;1.53;0.73;;;25.40;34.80;;;;;;5199563;28;21018;-50
2022/07/02 12:14:16;;;;;;;0.73;0.73;;;25.30;35.70;;;;;;5214301;28;20445;-50
2022/07/02 12:16:47;;;;;;;1.90;1.40;;;25.20;34.80;;;;;;5198312;28;20434;-49
2022/07/02 12:19:18;;;;;;;2.00;1.33;;;25.20;35.20;;;;;;5212742;28;20436;-48
2022/07/02 12:21:49;;;;;;;2.03;1.93;;;25.10;35.20;;;;;;5197749;28;20183;-49
2022/07/02 12:24:21;;;;;;;4.97;1.60;;;25.10;35.30;;;;;;5201667;28;20210;-49
2022/07/02 12:26:56;;;;;;;1.60;1.50;;;25.10;35.50;;;;;;5209875;28;20901;-51
2022/07/02 12:32:33;;;;;;;3.10;1.20;;;25.20;34.60;;;;;;5216592;28;20503;-50
2022/07/02 12:35:10;;;;;;;6.53;3.33;;;25.30;34.10;;;;;;5216140;28;20595;-49
2022/07/02 12:37:47;;;;;;;1.43;1.27;;;25.30;33.80;;;;;;5212544;28;20483;-48
2022/07/02 12:40:19;;;;;;;4.23;2.83;;;25.40;34.50;;;;;;5201430;28;21719;-50
2022/07/02 12:42:55;;;;;;;3.17;2.03;;;25.40;33.90;;;;;;5202301;28;20783;-49
2022/07/02 12:45:33;;;;;;;1.30;1.23;;;25.50;33.90;;;;;;5214970;28;22723;-50
2022/07/02 12:48:16;;;;;;;9.93;1.60;;;25.50;33.90;;;;;;5194231;28;20781;-48
2022/07/02 12:50:48;;;;;;;1.40;1.30;;;25.30;33.80;;;;;;5218230;28;20505;-51
2022/07/02 12:53:20;;;;;;;3.10;2.77;;;25.30;35.20;;;;;;5214178;28;20572;-51
2022/07/02 12:55:58;;;;;;;4.00;1.27;;;25.30;35.60;;;;;;5217101;28;20468;-52
2022/07/02 12:58:29;;;;;;;1.63;1.00;;;25.30;35.00;;;;;;5205652;28;20497;-50
2022/07/02 13:01:01;;;;;;;11.37;1.77;;;25.40;35.00;;;;;;5203277;28;20433;-53
2022/07/02 13:03:32;;;;;;;2.33;0.90;;;25.40;34.30;;;;;;5204575;28;20441;-51
2022/07/02 13:06:04;;;;;;;10.07;1.20;;;25.40;34.20;;;;;;5188221;28;20609;-53
2022/07/02 13:08:35;;;;;;;1.80;1.70;;;25.50;34.30;;;;;;5206157;28;20469;-52
2022/07/02 13:11:05;;;;;;;1.43;1.20;;;25.40;33.90;;;;;;5225679;28;20448;-51
2022/07/02 13:13:36;;;;;;;4.77;1.10;;;25.40;33.90;;;;;;5226607;28;20674;-53
2022/07/02 13:16:06;;;;;;;1.53;1.20;;;25.50;35.00;;;;;;5202034;28;20206;-50
2022/07/02 13:18:37;;;;;;;1.40;1.30;;;25.50;34.70;;;;;;5219458;28;20175;-51
2022/07/02 13:21:08;;;;;;;0.93;0.93;;;25.40;33.90;;;;;;5212654;28;20206;-50